Time;durP1;ratioP1;P1;durP2;ratioP2;P2;SDS_P1;SDS_P2;PMS_P1;PMS_P2;Temp;Humidity;BMP_temperature;BMP_pressure;BME280_temperature;BME280_humidity;BME280_pressure;Samples;Min_cycle;Max_cycle;Signal;HPM_P1;HPM_P2
2023/03/28 06:32:14;;;;;;;8.98;5.43;;;3.30;99.90;;;;;;6587383;23;20058;-76
2023/03/28 06:35:16;;;;;;;10.02;5.88;;;3.30;99.90;;;;;;6199877;28;20051;-77
2023/03/28 06:38:17;;;;;;;10.35;5.70;;;3.30;99.90;;;;;;6203496;28;20052;-77
2023/03/28 06:41:20;;;;;;;9.68;5.07;;;3.40;99.90;;;;;;6199304;28;20082;-78
2023/03/28 06:44:21;;;;;;;9.30;5.70;;;3.30;99.90;;;;;;6200239;28;20047;-78
2023/03/28 06:47:25;;;;;;;9.15;5.55;;;3.30;99.90;;;;;;6199898;28;20058;-77
2023/03/28 06:50:27;;;;;;;7.80;4.90;;;3.20;99.90;;;;;;6188914;28;20050;-78
2023/03/28 06:53:29;;;;;;;7.80;5.25;;;3.30;99.90;;;;;;6175440;28;20058;-78
2023/03/28 06:56:32;;;;;;;8.65;5.47;;;3.30;99.90;;;;;;6175654;28;20057;-77
2023/03/28 06:59:34;;;;;;;10.50;4.97;;;3.30;99.90;;;;;;6175559;28;20141;-78
2023/03/28 07:02:37;;;;;;;9.63;4.65;;;3.30;99.90;;;;;;6175560;28;20492;-77
2023/03/28 07:05:40;;;;;;;8.48;5.00;;;3.30;99.90;;;;;;6174795;28;20053;-78
2023/03/28 07:08:42;;;;;;;8.27;5.03;;;3.40;99.90;;;;;;6172043;28;20050;-77
2023/03/28 07:11:44;;;;;;;10.88;5.47;;;3.50;99.90;;;;;;6175272;28;20046;-79
2023/03/28 07:14:46;;;;;;;13.38;5.07;;;3.50;99.90;;;;;;6166980;28;20058;-77
2023/03/28 07:17:49;;;;;;;10.73;5.63;;;3.40;99.90;;;;;;6156526;28;20079;-78
2023/03/28 07:20:53;;;;;;;12.32;5.43;;;3.40;99.90;;;;;;6175259;28;20077;-78
2023/03/28 07:23:55;;;;;;;9.25;4.90;;;3.50;99.90;;;;;;6175103;28;20061;-77
2023/03/28 07:26:57;;;;;;;7.80;5.20;;;3.50;99.90;;;;;;6175212;28;20058;-77
2023/03/28 07:29:59;;;;;;;12.13;6.00;;;3.60;99.90;;;;;;6177247;28;20051;-77
2023/03/28 07:33:02;;;;;;;11.75;5.20;;;3.70;99.90;;;;;;6175510;28;20129;-77
2023/03/28 07:36:11;;;;;;;10.80;4.93;;;3.80;99.90;;;;;;6178129;28;20145;-77
2023/03/28 07:39:13;;;;;;;9.85;4.75;;;3.80;99.90;;;;;;6159171;28;20047;-77
2023/03/28 07:42:15;;;;;;;8.30;4.60;;;3.90;99.90;;;;;;6151014;29;20429;-77
2023/03/28 07:45:17;;;;;;;11.85;4.00;;;3.90;99.90;;;;;;6151693;28;20047;-77
2023/03/28 07:48:20;;;;;;;10.68;4.00;;;3.90;99.90;;;;;;6175020;28;20055;-76
2023/03/28 07:51:22;;;;;;;9.35;3.83;;;4.00;99.90;;;;;;6176044;28;20046;-76
2023/03/28 07:54:25;;;;;;;9.80;4.00;;;4.10;99.90;;;;;;6179042;28;20076;-78
2023/03/28 07:57:27;;;;;;;8.93;3.83;;;4.10;99.90;;;;;;6176748;28;20054;-79
2023/03/28 08:00:29;;;;;;;10.43;4.20;;;4.10;99.90;;;;;;6179133;28;20049;-79
2023/03/28 08:03:32;;;;;;;8.48;3.25;;;4.20;99.30;;;;;;6179572;28;20117;-77
2023/03/28 08:06:39;;;;;;;10.75;3.95;;;4.30;99.00;;;;;;6155633;28;20071;-78
2023/03/28 08:09:41;;;;;;;8.70;2.95;;;4.30;98.20;;;;;;6178177;28;20125;-80
2023/03/28 08:12:42;;;;;;;10.63;3.58;;;4.40;98.00;;;;;;6164902;28;20050;-79
2023/03/28 08:15:44;;;;;;;9.75;2.92;;;4.50;97.80;;;;;;6171262;28;20609;-78
2023/03/28 08:18:48;;;;;;;10.02;3.55;;;4.50;97.20;;;;;;6178702;28;20507;-79
2023/03/28 08:21:49;;;;;;;9.45;3.30;;;4.60;97.10;;;;;;6178472;28;20507;-80
2023/03/28 08:24:51;;;;;;;10.55;3.45;;;4.70;96.80;;;;;;6178457;28;20051;-78
2023/03/28 08:27:53;;;;;;;9.10;2.92;;;4.70;95.80;;;;;;6178669;28;20057;-78
2023/03/28 08:30:55;;;;;;;9.13;3.03;;;4.80;95.60;;;;;;6178531;28;20077;-77
2023/03/28 08:33:58;;;;;;;8.73;2.20;;;4.70;95.00;;;;;;6178899;28;20058;-79
2023/03/28 08:37:00;;;;;;;6.70;2.22;;;4.70;94.60;;;;;;6172681;28;20059;-78
2023/03/28 08:40:07;;;;;;;8.57;3.20;;;4.80;93.80;;;;;;6154496;28;20445;-78
2023/03/28 08:43:46;;;;;;;7.10;2.60;;;4.80;94.40;;;;;;6162944;28;20399;-80
2023/03/28 08:46:55;;;;;;;9.48;2.38;;;5.00;93.60;;;;;;6173742;28;20088;-77
2023/03/28 08:50:03;;;;;;;9.55;2.40;;;5.10;92.80;;;;;;6153966;29;20081;-77
2023/03/28 08:53:06;;;;;;;7.85;2.70;;;5.10;92.90;;;;;;6154203;29;20062;-78
2023/03/28 08:56:08;;;;;;;8.83;2.20;;;5.10;93.30;;;;;;6173416;28;20349;-78
2023/03/28 08:59:15;;;;;;;7.30;2.30;;;5.20;92.80;;;;;;6177887;28;20055;-77
2023/03/28 09:02:19;;;;;;;5.90;1.67;;;5.20;92.00;;;;;;6177457;28;20234;-79
2023/03/28 09:05:32;;;;;;;5.65;1.70;;;5.40;91.00;;;;;;6177310;28;20047;-76
2023/03/28 09:08:51;;;;;;;7.63;2.13;;;5.30;90.10;;;;;;6175747;28;20434;-77
2023/03/28 09:12:07;;;;;;;7.57;1.85;;;5.40;90.60;;;;;;6177350;28;20062;-79
2023/03/28 09:15:33;;;;;;;7.88;1.80;;;5.40;90.60;;;;;;6177109;28;20555;-78
2023/03/28 09:18:53;;;;;;;6.30;2.10;;;5.60;90.70;;;;;;6176830;28;20058;-77
2023/03/28 09:22:10;;;;;;;5.35;2.25;;;5.50;89.70;;;;;;6176263;28;20149;-78
2023/03/28 09:25:31;;;;;;;8.88;2.20;;;5.50;90.70;;;;;;6154330;28;20058;-78
2023/03/28 09:28:39;;;;;;;6.50;1.90;;;5.80;90.20;;;;;;6153149;28;20074;-78
2023/03/28 09:31:46;;;;;;;6.82;1.92;;;6.00;89.50;;;;;;6153550;28;20545;-78
2023/03/28 09:34:50;;;;;;;9.60;2.10;;;6.40;88.90;;;;;;6153933;29;20047;-80
2023/03/28 09:37:58;;;;;;;9.00;2.33;;;6.40;87.30;;;;;;6160730;28;20135;-79
2023/03/28 09:41:08;;;;;;;6.15;1.85;;;6.40;86.90;;;;;;6154640;29;20406;-79
2023/03/28 09:44:16;;;;;;;8.95;2.17;;;6.30;85.00;;;;;;6157831;28;20057;-76
2023/03/28 09:47:18;;;;;;;5.80;1.65;;;6.40;84.80;;;;;;6181954;28;20500;-78
2023/03/28 09:50:20;;;;;;;8.07;2.28;;;6.60;83.90;;;;;;6182277;28;20057;-77
2023/03/28 09:53:27;;;;;;;7.25;1.90;;;6.40;86.30;;;;;;6179128;28;20404;-78
2023/03/28 09:56:34;;;;;;;8.30;2.30;;;6.50;87.70;;;;;;6176099;28;20416;-79
2023/03/28 09:59:36;;;;;;;7.00;1.75;;;6.60;86.00;;;;;;6174252;28;20081;-79
2023/03/28 10:02:38;;;;;;;5.80;1.90;;;6.70;87.40;;;;;;6175789;28;20055;-79
2023/03/28 10:05:42;;;;;;;4.07;1.67;;;6.80;83.40;;;;;;6155182;28;20095;-78
2023/03/28 10:08:45;;;;;;;4.57;1.40;;;6.70;81.10;;;;;;6151772;29;20505;-78
2023/03/28 10:11:53;;;;;;;6.95;1.50;;;6.70;79.20;;;;;;6151680;29;20051;-78
2023/03/28 10:14:55;;;;;;;6.28;1.40;;;6.70;77.20;;;;;;6171515;28;20077;-78
2023/03/28 10:18:01;;;;;;;5.45;1.33;;;6.80;74.60;;;;;;6175607;28;20069;-80
2023/03/28 10:21:12;;;;;;;5.53;1.42;;;6.70;75.80;;;;;;6175731;28;20178;-80
2023/03/28 10:24:20;;;;;;;4.60;1.38;;;6.80;76.20;;;;;;6175478;28;20399;-80
2023/03/28 10:27:28;;;;;;;6.38;1.50;;;7.00;76.80;;;;;;6174007;28;20051;-76
2023/03/28 10:30:32;;;;;;;5.65;1.90;;;7.10;76.00;;;;;;6173463;28;20057;-78
2023/03/28 10:33:36;;;;;;;6.47;1.50;;;7.00;77.10;;;;;;6164618;28;20476;-77
2023/03/28 10:36:41;;;;;;;;;;;6.90;75.00;;;;;;6172523;28;20047;-77
2023/03/28 10:39:59;;;;;;;5.97;2.00;;;6.90;78.60;;;;;;6151782;29;19929;-79
2023/03/28 10:43:01;;;;;;;5.13;1.67;;;6.70;79.20;;;;;;6151241;28;20074;-79
2023/03/28 10:46:11;;;;;;;6.32;1.70;;;6.60;78.40;;;;;;6154249;28;20465;-77
2023/03/28 10:49:15;;;;;;;4.82;1.55;;;6.60;77.10;;;;;;6175191;28;20149;-79
2023/03/28 10:52:26;;;;;;;7.30;1.77;;;6.80;77.40;;;;;;6175003;28;20396;-78
2023/03/28 10:55:37;;;;;;;5.10;1.70;;;6.90;76.80;;;;;;6175102;28;20050;-78
2023/03/28 10:58:44;;;;;;;7.72;1.83;;;6.80;75.90;;;;;;6173809;28;20178;-78
2023/03/28 11:02:03;;;;;;;5.25;1.63;;;6.70;73.60;;;;;;6172586;28;20046;-79
2023/03/28 11:05:21;;;;;;;5.20;1.52;;;6.70;74.80;;;;;;6171892;28;20051;-78
2023/03/28 11:08:40;;;;;;;5.10;1.52;;;6.90;75.70;;;;;;6179346;28;20057;-77
2023/03/28 11:11:59;;;;;;;5.85;1.60;;;6.90;73.90;;;;;;6172261;28;20043;-77
2023/03/28 11:15:10;;;;;;;5.85;1.60;;;7.00;74.60;;;;;;6154994;28;20428;-76
2023/03/28 11:18:29;;;;;;;5.40;1.60;;;7.30;74.60;;;;;;6148024;28;20062;-78
2023/03/28 11:21:44;;;;;;;6.30;1.60;;;7.30;73.80;;;;;;6148201;29;20058;-76
2023/03/28 11:24:55;;;;;;;6.00;1.70;;;7.40;70.20;;;;;;6157060;28;20113;-76
2023/03/28 11:28:11;;;;;;;7.38;3.10;;;7.50;68.80;;;;;;6175633;28;20053;-76
2023/03/28 11:31:18;;;;;;;7.38;1.60;;;7.70;69.80;;;;;;6155964;28;20055;-78
2023/03/28 11:34:25;;;;;;;5.32;2.00;;;7.80;68.10;;;;;;6152529;29;20141;-78
2023/03/28 11:37:32;;;;;;;6.10;1.75;;;8.10;71.80;;;;;;6152291;29;20051;-76
2023/03/28 11:40:43;;;;;;;4.80;1.70;;;8.00;71.70;;;;;;6169647;28;20051;-77
2023/03/28 11:43:53;;;;;;;5.05;1.95;;;7.90;71.20;;;;;;6174264;28;20050;-77
2023/03/28 11:47:03;;;;;;;6.65;1.70;;;8.10;70.50;;;;;;6150469;29;20051;-78
2023/03/28 11:50:10;;;;;;;4.07;1.60;;;8.40;69.50;;;;;;6154688;28;20503;-79
2023/03/28 11:53:21;;;;;;;4.15;1.60;;;8.30;67.40;;;;;;6177348;28;20059;-79
2023/03/28 11:56:39;;;;;;;4.95;1.70;;;8.60;68.30;;;;;;6179512;28;20051;-77
2023/03/28 11:59:50;;;;;;;5.50;1.50;;;8.70;65.90;;;;;;6178810;28;20416;-78
2023/03/28 12:02:58;;;;;;;5.65;1.70;;;8.70;67.20;;;;;;6179061;28;20125;-78
2023/03/28 12:06:05;;;;;;;4.25;1.40;;;9.10;67.70;;;;;;6178722;28;20505;-79
2023/03/28 12:09:16;;;;;;;3.53;1.58;;;9.40;64.50;;;;;;6179006;28;20054;-78
2023/03/28 12:12:24;;;;;;;3.75;1.58;;;9.50;63.50;;;;;;6178604;28;20086;-78
2023/03/28 12:15:39;;;;;;;5.40;1.83;;;9.50;62.90;;;;;;6178811;28;20057;-79
2023/03/28 12:18:46;;;;;;;4.50;1.67;;;9.30;62.70;;;;;;6178667;28;20455;-78
2023/03/28 12:21:53;;;;;;;4.25;1.50;;;9.30;63.60;;;;;;6178529;28;20047;-77
2023/03/28 12:25:04;;;;;;;6.68;1.75;;;9.70;63.70;;;;;;6178231;28;20073;-78
2023/03/28 12:28:13;;;;;;;5.18;1.77;;;9.70;61.20;;;;;;6178256;28;20046;-79
2023/03/28 12:31:22;;;;;;;5.65;1.92;;;9.70;62.80;;;;;;6177835;28;20078;-78
2023/03/28 12:34:33;;;;;;;6.00;2.00;;;9.90;63.80;;;;;;6178245;28;20051;-80
2023/03/28 12:37:43;;;;;;;4.70;2.03;;;10.20;62.40;;;;;;6176766;28;20046;-79
2023/03/28 12:40:54;;;;;;;4.28;1.90;;;10.30;62.00;;;;;;6177997;28;20050;-79
2023/03/28 12:43:59;;;;;;;4.22;1.70;;;10.40;61.20;;;;;;6178138;28;20051;-79
2023/03/28 12:47:07;;;;;;;5.65;1.95;;;10.60;61.60;;;;;;6178227;28;20190;-78
2023/03/28 12:50:16;;;;;;;5.15;1.90;;;10.50;59.50;;;;;;6177640;28;20517;-78
2023/03/28 12:53:20;;;;;;;4.40;1.73;;;10.30;60.70;;;;;;6177835;28;20047;-78
2023/03/28 12:56:22;;;;;;;;;;;10.60;60.10;;;;;;6178133;28;20050;-78
2023/03/28 12:59:53;;;;;;;5.20;1.80;;;10.20;59.50;;;;;;6167501;28;20387;-80
2023/03/28 13:03:17;;;;;;;4.32;1.77;;;10.10;60.00;;;;;;6153682;29;20122;-80
2023/03/28 13:06:28;;;;;;;6.18;1.70;;;10.10;59.20;;;;;;6176605;28;20047;-78
2023/03/28 13:09:52;;;;;;;7.25;2.20;;;10.10;60.20;;;;;;6164354;28;20059;-80
2023/03/28 13:13:09;;;;;;;4.55;1.85;;;10.20;59.80;;;;;;6153255;29;20049;-77
2023/03/28 13:16:16;;;;;;;4.22;1.70;;;10.10;61.20;;;;;;6153060;29;20074;-76
2023/03/28 13:19:19;;;;;;;7.82;2.00;;;10.50;61.90;;;;;;6160465;28;20070;-78
2023/03/28 13:22:31;;;;;;;5.50;2.20;;;10.80;60.20;;;;;;6173360;28;20103;-77
2023/03/28 13:25:34;;;;;;;5.63;2.25;;;11.10;59.30;;;;;;6173689;28;20050;-78
2023/03/28 13:28:43;;;;;;;4.43;1.90;;;11.10;58.30;;;;;;6173971;28;20505;-76
2023/03/28 13:31:45;;;;;;;5.07;1.70;;;11.50;58.20;;;;;;6173153;28;20069;-76
2023/03/28 13:34:52;;;;;;;4.32;1.88;;;11.70;58.40;;;;;;6173867;28;20054;-79
2023/03/28 13:37:54;;;;;;;3.90;1.60;;;11.90;57.80;;;;;;6171834;28;20137;-76
2023/03/28 13:40:59;;;;;;;4.40;1.70;;;12.20;59.80;;;;;;6173818;28;20061;-78
2023/03/28 13:44:05;;;;;;;5.25;1.90;;;11.90;58.90;;;;;;6173511;28;20077;-76
2023/03/28 13:47:16;;;;;;;4.00;1.70;;;12.50;56.50;;;;;;6174153;28;20062;-78
2023/03/28 13:50:26;;;;;;;4.28;1.80;;;13.00;59.10;;;;;;6173057;28;20058;-79
2023/03/28 13:53:31;;;;;;;4.22;1.60;;;13.50;55.20;;;;;;6152531;28;20055;-80
2023/03/28 13:56:35;;;;;;;4.15;1.80;;;13.80;56.30;;;;;;6157433;28;20517;-77
2023/03/28 13:59:39;;;;;;;5.32;1.63;;;13.90;53.10;;;;;;6157785;29;20061;-79
2023/03/28 14:02:44;;;;;;;5.47;1.70;;;13.90;53.40;;;;;;6158047;29;20043;-79
2023/03/28 14:05:47;;;;;;;4.07;1.60;;;14.40;53.60;;;;;;6155259;28;20492;-78
2023/03/28 14:08:52;;;;;;;3.78;1.80;;;14.50;54.50;;;;;;6170438;28;20468;-79
2023/03/28 14:11:55;;;;;;;5.72;1.90;;;14.90;53.20;;;;;;6175993;28;20046;-78
2023/03/28 14:15:01;;;;;;;5.82;1.60;;;15.50;54.50;;;;;;6173112;28;20058;-78
2023/03/28 14:18:04;;;;;;;5.50;1.80;;;16.10;51.60;;;;;;6172488;28;20055;-76
2023/03/28 14:21:08;;;;;;;6.40;1.83;;;16.60;51.70;;;;;;6170386;28;20046;-79
2023/03/28 14:24:16;;;;;;;5.10;1.90;;;16.70;50.30;;;;;;6172785;28;20065;-79
2023/03/28 14:27:30;;;;;;;5.05;1.77;;;17.10;48.70;;;;;;6172539;28;20047;-78
2023/03/28 14:30:39;;;;;;;5.85;1.85;;;17.50;49.30;;;;;;6164649;28;20050;-78
2023/03/28 14:33:40;;;;;;;6.28;1.75;;;16.90;47.60;;;;;;6168171;28;20047;-79
2023/03/28 14:36:59;;;;;;;4.53;1.67;;;17.90;46.70;;;;;;6172454;28;20047;-79
2023/03/28 14:40:18;;;;;;;4.38;1.63;;;18.80;46.40;;;;;;6170249;28;20468;-79
2023/03/28 14:43:26;;;;;;;3.90;1.50;;;19.00;44.80;;;;;;6172260;28;20493;-78
2023/03/28 14:46:31;;;;;;;4.60;1.60;;;21.80;41.30;;;;;;6171955;28;20419;-78
2023/03/28 14:49:33;;;;;;;5.88;1.80;;;28.10;36.00;;;;;;6170942;28;20057;-78
2023/03/28 14:52:39;;;;;;;5.28;1.63;;;31.90;31.40;;;;;;6170659;28;20400;-78
2023/03/28 14:55:42;;;;;;;4.22;1.30;;;33.90;29.40;;;;;;6181042;28;20050;-78
2023/03/28 14:58:47;;;;;;;4.63;1.48;;;35.20;28.50;;;;;;6154116;28;20489;-79
2023/03/28 15:01:50;;;;;;;3.42;1.40;;;36.00;28.20;;;;;;6149354;28;20058;-77
2023/03/28 15:04:53;;;;;;;3.90;1.33;;;36.20;27.70;;;;;;6152189;29;20059;-77
2023/03/28 15:08:01;;;;;;;3.50;1.25;;;36.90;27.60;;;;;;6158245;29;20051;-79
2023/03/28 15:11:08;;;;;;;3.55;1.40;;;36.70;27.10;;;;;;6173769;28;20105;-78
2023/03/28 15:14:16;;;;;;;3.72;1.40;;;36.90;26.70;;;;;;6162576;28;20058;-79
2023/03/28 15:17:20;;;;;;;4.47;1.85;;;33.90;26.80;;;;;;6158106;29;20059;-78
2023/03/28 15:20:26;;;;;;;4.43;1.60;;;32.30;27.40;;;;;;6156596;29;20402;-80
2023/03/28 15:23:32;;;;;;;3.78;1.40;;;32.50;27.40;;;;;;6154771;29;20101;-80
2023/03/28 15:26:37;;;;;;;3.63;1.30;;;33.50;27.00;;;;;;6164175;28;20051;-79
2023/03/28 15:29:39;;;;;;;3.75;1.60;;;34.90;27.40;;;;;;6152365;28;20051;-79
2023/03/28 15:32:41;;;;;;;4.43;1.55;;;35.50;26.80;;;;;;6149623;28;20063;-78
2023/03/28 15:35:43;;;;;;;5.78;1.63;;;34.50;26.40;;;;;;6185495;28;20061;-78
2023/03/28 15:38:51;;;;;;;6.53;1.60;;;35.50;26.90;;;;;;6190732;28;20050;-79
2023/03/28 15:41:55;;;;;;;3.85;1.60;;;36.90;27.00;;;;;;6172152;28;20057;-78
2023/03/28 15:45:22;;;;;;;3.95;1.30;;;34.80;26.70;;;;;;6160564;28;20098;-79
2023/03/28 15:48:24;;;;;;;3.33;1.35;;;34.10;27.20;;;;;;6173883;28;20051;-80
2023/03/28 15:51:27;;;;;;;3.78;1.40;;;35.50;26.60;;;;;;6177486;28;20039;-77
2023/03/28 15:54:34;;;;;;;4.43;1.42;;;36.30;26.10;;;;;;6172852;28;20059;-78
2023/03/28 15:57:36;;;;;;;3.80;1.30;;;35.30;26.50;;;;;;6149125;28;20043;-79
2023/03/28 16:00:44;;;;;;;3.78;1.38;;;34.70;26.30;;;;;;6161804;28;20062;-78
2023/03/28 16:03:46;;;;;;;5.60;1.40;;;30.80;27.60;;;;;;6194030;28;20050;-79
2023/03/28 16:06:49;;;;;;;4.65;1.40;;;32.10;27.90;;;;;;6195802;28;20054;-79
2023/03/28 16:09:52;;;;;;;4.57;1.63;;;31.10;28.00;;;;;;6172088;28;20050;-78
2023/03/28 16:12:54;;;;;;;3.47;1.38;;;31.30;27.60;;;;;;6169695;28;20062;-78
2023/03/28 16:15:56;;;;;;;;;;;31.30;28.10;;;;;;6176838;28;20047;-80
2023/03/28 16:19:03;;;;;;;3.92;1.50;;;30.80;28.10;;;;;;6197723;28;19933;-77
2023/03/28 16:22:05;;;;;;;5.03;1.38;;;31.70;28.20;;;;;;6199304;28;20054;-77
2023/03/28 16:25:09;;;;;;;;;;;32.30;27.30;;;;;;6180911;28;20047;-77
2023/03/28 16:28:17;;;;;;;4.03;1.50;;;31.80;27.60;;;;;;6175148;28;20401;-81
2023/03/28 16:31:19;;;;;;;5.78;1.52;;;32.40;27.20;;;;;;6175444;28;20073;-77
2023/03/28 16:34:21;;;;;;;4.13;1.70;;;31.60;27.50;;;;;;6175071;28;20051;-78
2023/03/28 16:37:23;;;;;;;4.40;1.58;;;30.70;27.90;;;;;;6174241;28;20061;-78
2023/03/28 16:40:26;;;;;;;3.97;1.63;;;29.80;28.60;;;;;;6175658;28;20046;-79
2023/03/28 16:43:28;;;;;;;4.68;1.50;;;28.90;28.20;;;;;;6165768;28;20448;-79
2023/03/28 16:46:30;;;;;;;4.93;1.48;;;28.80;28.60;;;;;;6152471;29;20047;-80
2023/03/28 16:49:32;;;;;;;6.25;1.83;;;28.10;29.10;;;;;;6151453;29;20114;-80
2023/03/28 16:52:37;;;;;;;5.53;1.90;;;27.70;29.10;;;;;;6150919;28;20056;-78
2023/03/28 16:55:40;;;;;;;3.92;1.45;;;26.50;29.40;;;;;;6151393;29;20062;-77
2023/03/28 16:58:42;;;;;;;5.82;1.90;;;24.60;30.30;;;;;;6151661;28;20059;-77
2023/03/28 17:01:45;;;;;;;6.05;1.80;;;23.90;31.40;;;;;;6150847;29;20065;-78
2023/03/28 17:04:49;;;;;;;4.72;1.90;;;23.30;31.90;;;;;;6151141;29;20062;-79
2023/03/28 17:07:51;;;;;;;3.42;1.50;;;22.00;32.90;;;;;;6150881;29;20070;-77
2023/03/28 17:10:54;;;;;;;4.15;1.88;;;20.60;35.00;;;;;;6158674;28;20059;-78
2023/03/28 17:13:57;;;;;;;4.70;1.75;;;19.80;35.50;;;;;;6151125;28;20051;-80
2023/03/28 17:17:00;;;;;;;6.60;1.52;;;19.10;36.50;;;;;;6142991;28;20062;-79
2023/03/28 17:20:02;;;;;;;4.57;1.80;;;18.40;37.20;;;;;;6161140;28;20051;-79
2023/03/28 17:23:04;;;;;;;7.70;2.00;;;17.60;39.20;;;;;;6174243;28;20499;-80
2023/03/28 17:26:10;;;;;;;6.25;1.80;;;17.10;39.90;;;;;;6173674;28;20061;-79
2023/03/28 17:29:14;;;;;;;5.47;2.00;;;16.80;41.00;;;;;;6174354;28;20051;-80
2023/03/28 17:32:16;;;;;;;6.82;2.08;;;16.40;41.60;;;;;;6174631;28;20059;-79
2023/03/28 17:35:20;;;;;;;6.15;1.85;;;15.90;41.90;;;;;;6175287;28;20488;-82
2023/03/28 17:38:22;;;;;;;5.20;2.15;;;15.60;42.70;;;;;;6165818;28;20047;-81
2023/03/28 17:41:26;;;;;;;5.78;2.00;;;15.50;43.10;;;;;;6167974;28;20057;-79
2023/03/28 17:44:28;;;;;;;6.05;2.10;;;15.30;43.90;;;;;;6173633;28;20051;-78
2023/03/28 17:47:30;;;;;;;5.00;1.80;;;14.90;44.30;;;;;;6174097;28;20058;-77
2023/03/28 17:50:33;;;;;;;4.88;1.67;;;14.80;45.50;;;;;;6167871;28;20149;-78
2023/03/28 17:53:36;;;;;;;5.28;1.70;;;14.60;44.90;;;;;;6174581;28;20408;-76
2023/03/28 17:56:39;;;;;;;5.57;2.00;;;14.50;45.80;;;;;;6160918;28;20174;-79
2023/03/28 17:59:41;;;;;;;6.60;2.17;;;14.20;45.80;;;;;;6172976;28;20050;-78
2023/03/28 18:02:45;;;;;;;5.00;2.00;;;13.90;45.60;;;;;;6163736;28;20055;-76
2023/03/28 18:05:49;;;;;;;4.68;1.60;;;13.70;46.20;;;;;;6172809;28;20046;-79
2023/03/28 18:08:51;;;;;;;4.35;1.60;;;13.50;46.60;;;;;;6170598;28;20100;-77
2023/03/28 18:11:54;;;;;;;5.03;1.80;;;13.20;47.50;;;;;;6161547;28;20046;-76
2023/03/28 18:14:56;;;;;;;5.78;1.60;;;13.10;48.40;;;;;;6171667;28;20512;-77
2023/03/28 18:18:00;;;;;;;4.80;1.58;;;13.00;48.80;;;;;;6193377;28;20050;-78
2023/03/28 18:21:03;;;;;;;6.78;2.25;;;12.90;47.90;;;;;;6197224;28;20435;-79
2023/03/28 18:24:08;;;;;;;4.60;2.08;;;12.60;47.80;;;;;;6168319;28;20047;-77
2023/03/28 18:27:11;;;;;;;5.35;1.98;;;12.30;47.50;;;;;;6168832;28;20062;-76
2023/03/28 18:30:14;;;;;;;6.75;2.53;;;12.20;47.80;;;;;;6149241;29;20055;-79
2023/03/28 18:33:17;;;;;;;7.70;4.22;;;12.10;48.00;;;;;;6149070;28;20713;-78
2023/03/28 18:36:19;;;;;;;4.93;2.33;;;11.90;47.90;;;;;;6148309;28;20051;-77
2023/03/28 18:39:22;;;;;;;4.68;2.08;;;11.70;48.80;;;;;;6155615;28;20062;-76
2023/03/28 18:42:26;;;;;;;4.68;2.38;;;11.70;48.60;;;;;;6171747;28;20087;-77
2023/03/28 18:45:28;;;;;;;;;;;11.70;48.50;;;;;;6173293;28;20082;-80
2023/03/28 18:48:30;;;;;;;5.53;2.00;;;11.30;48.70;;;;;;6172681;28;19933;-79
2023/03/28 18:51:32;;;;;;;5.03;2.15;;;11.20;48.90;;;;;;6172267;28;20062;-79
2023/03/28 18:54:35;;;;;;;4.93;2.20;;;11.30;48.90;;;;;;6172532;28;20058;-79
2023/03/28 18:57:39;;;;;;;6.63;3.00;;;11.20;49.20;;;;;;6166800;28;20047;-78
2023/03/28 19:00:41;;;;;;;4.75;2.45;;;11.00;49.30;;;;;;6172875;28;20054;-79
2023/03/28 19:03:43;;;;;;;5.90;2.35;;;10.90;49.50;;;;;;6171644;28;20074;-78
2023/03/28 19:06:45;;;;;;;3.72;2.10;;;10.80;50.00;;;;;;6169907;28;20043;-78
2023/03/28 19:09:47;;;;;;;6.93;2.30;;;10.80;50.00;;;;;;6148694;29;20134;-78
2023/03/28 19:12:50;;;;;;;4.63;2.08;;;10.70;50.00;;;;;;6148251;28;20098;-76
2023/03/28 19:15:59;;;;;;;3.83;2.10;;;10.70;50.60;;;;;;6151151;28;20522;-77
2023/03/28 19:19:01;;;;;;;3.90;1.90;;;10.60;50.80;;;;;;6167412;28;20063;-77
2023/03/28 19:22:04;;;;;;;4.28;2.28;;;10.70;51.00;;;;;;6163784;28;20051;-78
2023/03/28 19:25:08;;;;;;;5.18;2.88;;;10.60;50.90;;;;;;6171499;28;20051;-79
2023/03/28 19:28:12;;;;;;;5.72;2.95;;;10.50;50.90;;;;;;6161590;28;20567;-80
2023/03/28 19:31:14;;;;;;;5.40;2.42;;;10.50;51.20;;;;;;6159031;28;20059;-76
2023/03/28 19:34:18;;;;;;;3.63;1.98;;;10.60;50.60;;;;;;6172666;28;20055;-79
2023/03/28 19:37:20;;;;;;;;;;;10.60;50.30;;;;;;6175295;28;20051;-78
2023/03/28 19:40:24;;;;;;;5.05;2.03;;;10.60;50.20;;;;;;6162185;28;19933;-80
2023/03/28 19:43:29;;;;;;;4.47;2.00;;;10.50;50.10;;;;;;6178723;28;20046;-79
2023/03/28 19:46:31;;;;;;;6.30;2.10;;;10.60;49.60;;;;;;6178721;28;20058;-79
2023/03/28 19:49:34;;;;;;;4.50;1.85;;;10.60;50.30;;;;;;6182197;28;20043;-78
2023/03/28 19:52:37;;;;;;;6.32;2.30;;;10.50;49.60;;;;;;6167018;28;20114;-79
2023/03/28 19:55:38;;;;;;;5.63;2.20;;;10.50;49.30;;;;;;6161765;29;20047;-78
2023/03/28 19:58:42;;;;;;;4.35;2.00;;;10.40;49.20;;;;;;6154379;28;20056;-78
2023/03/28 20:01:44;;;;;;;5.13;2.70;;;10.50;49.20;;;;;;6174815;28;20057;-78
2023/03/28 20:04:46;;;;;;;6.10;2.60;;;10.50;49.00;;;;;;6176807;28;20528;-77
2023/03/28 20:07:48;;;;;;;5.03;2.10;;;10.50;49.00;;;;;;6191841;28;20057;-84
2023/03/28 20:10:51;;;;;;;4.22;2.10;;;10.60;53.70;;;;;;6179669;28;20058;-82
2023/03/28 20:13:54;;;;;;;4.47;2.15;;;10.70;49.90;;;;;;6159456;28;20063;-85
2023/03/28 20:16:56;;;;;;;5.32;2.20;;;10.80;50.90;;;;;;6153536;28;20133;-76
2023/03/28 20:19:58;;;;;;;5.07;2.03;;;10.90;51.10;;;;;;6170008;28;20512;-78
2023/03/28 20:23:00;;;;;;;6.28;2.00;;;10.90;49.00;;;;;;6175875;28;20051;-79
2023/03/28 20:26:14;;;;;;;3.58;2.08;;;10.90;49.50;;;;;;6175100;28;20449;-78
2023/03/28 20:29:17;;;;;;;5.13;2.05;;;10.80;48.30;;;;;;6175283;28;20074;-79
2023/03/28 20:32:19;;;;;;;3.65;2.17;;;10.80;48.60;;;;;;6175701;28;20055;-79
2023/03/28 20:35:21;;;;;;;3.88;1.90;;;10.80;48.90;;;;;;6175937;28;20416;-79
2023/03/28 20:38:23;;;;;;;4.07;2.00;;;10.80;49.60;;;;;;6173541;28;20047;-81
2023/03/28 20:41:26;;;;;;;5.00;2.30;;;10.70;48.80;;;;;;6172960;28;20408;-77
2023/03/28 20:44:36;;;;;;;4.15;2.05;;;10.70;49.30;;;;;;6154414;28;20055;-78
2023/03/28 20:47:38;;;;;;;4.43;2.15;;;10.60;49.00;;;;;;6151494;29;20055;-79
2023/03/28 20:50:41;;;;;;;6.15;2.90;;;10.60;49.30;;;;;;6154284;28;20046;-78
2023/03/28 20:53:45;;;;;;;5.57;2.70;;;10.50;49.30;;;;;;6174434;28;20612;-78
2023/03/28 20:56:48;;;;;;;4.13;2.20;;;10.50;49.30;;;;;;6171175;28;20055;-78
2023/03/28 20:59:54;;;;;;;4.30;2.45;;;10.50;50.30;;;;;;6153365;28;20055;-77
2023/03/28 21:02:56;;;;;;;4.47;2.30;;;10.50;49.80;;;;;;6177905;28;20055;-77
2023/03/28 21:06:00;;;;;;;5.20;2.17;;;10.40;50.20;;;;;;6177978;28;20413;-77
2023/03/28 21:09:04;;;;;;;5.35;2.10;;;10.30;51.30;;;;;;6177503;28;20047;-76
2023/03/28 21:12:07;;;;;;;6.03;2.15;;;10.20;51.10;;;;;;6165487;28;20047;-78
2023/03/28 21:15:11;;;;;;;4.50;2.10;;;10.20;51.40;;;;;;6153835;29;20512;-77
2023/03/28 21:18:14;;;;;;;4.25;2.05;;;10.20;51.50;;;;;;6153536;29;20047;-78
2023/03/28 21:21:18;;;;;;;5.07;2.00;;;9.90;54.60;;;;;;6153180;29;20082;-77
2023/03/28 21:24:20;;;;;;;4.10;1.60;;;9.70;57.30;;;;;;6175187;28;20386;-79
2023/03/28 21:27:22;;;;;;;4.85;1.70;;;9.70;58.80;;;;;;6169247;28;20043;-80
2023/03/28 21:30:25;;;;;;;3.33;1.60;;;9.80;59.60;;;;;;6153702;29;20051;-78
2023/03/28 21:33:28;;;;;;;3.80;1.67;;;10.00;60.40;;;;;;6162160;28;20051;-77
2023/03/28 21:36:30;;;;;;;4.15;1.60;;;10.10;59.60;;;;;;6176721;28;20057;-78
2023/03/28 21:39:32;;;;;;;3.60;1.60;;;10.10;59.50;;;;;;6176491;28;20074;-79
2023/03/28 21:42:34;;;;;;;3.30;1.27;;;10.20;59.50;;;;;;6173707;28;20057;-77
2023/03/28 21:45:37;;;;;;;3.05;1.30;;;10.10;59.50;;;;;;6175592;28;20051;-76
2023/03/28 21:48:40;;;;;;;3.97;1.30;;;10.10;60.50;;;;;;6176511;28;20404;-79
2023/03/28 21:51:42;;;;;;;4.33;1.40;;;10.00;60.80;;;;;;6176139;28;20050;-77
2023/03/28 21:54:44;;;;;;;2.95;1.13;;;10.00;61.00;;;;;;6171105;28;20043;-79
2023/03/28 21:57:46;;;;;;;4.63;1.35;;;10.20;62.00;;;;;;6168640;28;20480;-77
